sensor_id;sensor_type;location;lat;lon;timestamp;P1;durP1;ratioP1;P2;durP2;ratioP2
38208;SDS011;24016;52.102;11.584;2023-02-01T00:01:41;12.02;;;2.92;;
38208;SDS011;24016;52.102;11.584;2023-02-01T00:04:07;15.35;;;3.13;;
38208;SDS011;24016;52.102;11.584;2023-02-01T00:06:32;17.50;;;3.50;;
38208;SDS011;24016;52.102;11.584;2023-02-01T00:08:58;14.95;;;3.72;;
38208;SDS011;24016;52.102;11.584;2023-02-01T00:11:23;15.23;;;3.40;;
38208;SDS011;24016;52.102;11.584;2023-02-01T00:13:49;16.88;;;3.08;;
38208;SDS011;24016;52.102;11.584;2023-02-01T00:16:16;15.93;;;3.53;;
38208;SDS011;24016;52.102;11.584;2023-02-01T00:18:44;12.07;;;2.90;;
38208;SDS011;24016;52.102;11.584;2023-02-01T00:21:11;14.25;;;4.05;;
38208;SDS011;24016;52.102;11.584;2023-02-01T00:23:37;14.88;;;3.13;;
38208;SDS011;24016;52.102;11.584;2023-02-01T00:26:04;12.57;;;3.13;;
38208;SDS011;24016;52.102;11.584;2023-02-01T00:28:31;13.10;;;2.90;;
38208;SDS011;24016;52.102;11.584;2023-02-01T00:30:58;15.10;;;3.20;;
38208;SDS011;24016;52.102;11.584;2023-02-01T00:33:28;14.43;;;3.10;;
38208;SDS011;24016;52.102;11.584;2023-02-01T00:35:58;14.18;;;2.92;;
38208;SDS011;24016;52.102;11.584;2023-02-01T00:38:25;17.58;;;3.70;;
38208;SDS011;24016;52.102;11.584;2023-02-01T00:40:51;16.88;;;3.30;;
38208;SDS011;24016;52.102;11.584;2023-02-01T00:43:16;13.05;;;3.47;;
38208;SDS011;24016;52.102;11.584;2023-02-01T00:45:42;13.07;;;3.03;;
38208;SDS011;24016;52.102;11.584;2023-02-01T00:48:07;13.23;;;3.45;;
38208;SDS011;24016;52.102;11.584;2023-02-01T00:50:33;15.85;;;3.38;;
38208;SDS011;24016;52.102;11.584;2023-02-01T00:52:58;12.82;;;3.50;;
38208;SDS011;24016;52.102;11.584;2023-02-01T00:55:24;14.25;;;2.80;;
38208;SDS011;24016;52.102;11.584;2023-02-01T00:57:50;14.45;;;3.78;;
38208;SDS011;24016;52.102;11.584;2023-02-01T01:00:15;14.10;;;3.00;;
38208;SDS011;24016;52.102;11.584;2023-02-01T01:02:42;15.43;;;3.45;;
38208;SDS011;24016;52.102;11.584;2023-02-01T01:05:08;15.30;;;3.15;;
38208;SDS011;24016;52.102;11.584;2023-02-01T01:07:33;19.10;;;3.88;;
38208;SDS011;24016;52.102;11.584;2023-02-01T01:09:59;15.65;;;3.45;;
38208;SDS011;24016;52.102;11.584;2023-02-01T01:12:25;22.80;;;3.42;;
38208;SDS011;24016;52.102;11.584;2023-02-01T01:14:50;11.45;;;3.50;;
38208;SDS011;24016;52.102;11.584;2023-02-01T01:17:16;13.85;;;3.72;;
38208;SDS011;24016;52.102;11.584;2023-02-01T01:19:41;16.58;;;2.97;;
38208;SDS011;24016;52.102;11.584;2023-02-01T01:22:07;14.73;;;3.38;;
38208;SDS011;24016;52.102;11.584;2023-02-01T01:24:32;17.67;;;3.13;;
38208;SDS011;24016;52.102;11.584;2023-02-01T01:26:58;11.50;;;3.05;;
38208;SDS011;24016;52.102;11.584;2023-02-01T01:29:24;14.02;;;3.17;;
38208;SDS011;24016;52.102;11.584;2023-02-01T01:31:49;15.80;;;3.65;;
38208;SDS011;24016;52.102;11.584;2023-02-01T01:34:15;18.55;;;3.55;;
38208;SDS011;24016;52.102;11.584;2023-02-01T01:36:40;15.32;;;3.83;;
38208;SDS011;24016;52.102;11.584;2023-02-01T01:39:06;12.90;;;3.13;;
38208;SDS011;24016;52.102;11.584;2023-02-01T01:41:32;13.00;;;3.10;;
38208;SDS011;24016;52.102;11.584;2023-02-01T01:43:59;15.20;;;3.00;;
38208;SDS011;24016;52.102;11.584;2023-02-01T01:46:27;16.75;;;3.05;;
38208;SDS011;24016;52.102;11.584;2023-02-01T01:49:17;17.77;;;3.88;;
38208;SDS011;24016;52.102;11.584;2023-02-01T01:51:50;16.45;;;3.90;;
38208;SDS011;24016;52.102;11.584;2023-02-01T01:54:23;13.35;;;3.03;;
38208;SDS011;24016;52.102;11.584;2023-02-01T01:56:52;15.85;;;3.17;;
38208;SDS011;24016;52.102;11.584;2023-02-01T01:59:21;14.82;;;3.25;;
38208;SDS011;24016;52.102;11.584;2023-02-01T02:01:49;18.77;;;4.32;;
38208;SDS011;24016;52.102;11.584;2023-02-01T02:04:15;17.77;;;3.97;;
38208;SDS011;24016;52.102;11.584;2023-02-01T02:07:14;11.70;;;3.53;;
38208;SDS011;24016;52.102;11.584;2023-02-01T02:09:44;12.93;;;2.90;;
38208;SDS011;24016;52.102;11.584;2023-02-01T02:12:10;17.58;;;3.75;;
38208;SDS011;24016;52.102;11.584;2023-02-01T02:14:35;12.88;;;3.63;;
38208;SDS011;24016;52.102;11.584;2023-02-01T02:22:21;14.82;;;3.70;;
38208;SDS011;24016;52.102;11.584;2023-02-01T02:25:03;13.50;;;3.20;;
38208;SDS011;24016;52.102;11.584;2023-02-01T02:28:00;18.92;;;4.13;;
38208;SDS011;24016;52.102;11.584;2023-02-01T02:33:23;13.70;;;3.58;;
38208;SDS011;24016;52.102;11.584;2023-02-01T02:42:12;17.13;;;3.40;;
38208;SDS011;24016;52.102;11.584;2023-02-01T02:44:57;10.98;;;3.40;;
38208;SDS011;24016;52.102;11.584;2023-02-01T02:48:05;18.37;;;3.50;;
38208;SDS011;24016;52.102;11.584;2023-02-01T02:51:09;14.48;;;3.38;;
38208;SDS011;24016;52.102;11.584;2023-02-01T02:53:57;18.20;;;4.15;;
38208;SDS011;24016;52.102;11.584;2023-02-01T02:56:53;17.90;;;3.67;;
38208;SDS011;24016;52.102;11.584;2023-02-01T02:59:40;12.73;;;3.55;;
38208;SDS011;24016;52.102;11.584;2023-02-01T03:02:27;18.73;;;3.53;;
38208;SDS011;24016;52.102;11.584;2023-02-01T03:05:12;19.70;;;4.05;;
38208;SDS011;24016;52.102;11.584;2023-02-01T03:13:02;14.45;;;3.70;;
38208;SDS011;24016;52.102;11.584;2023-02-01T03:21:13;14.57;;;3.47;;
38208;SDS011;24016;52.102;11.584;2023-02-01T03:23:45;17.80;;;4.00;;
38208;SDS011;24016;52.102;11.584;2023-02-01T03:26:13;16.25;;;3.03;;
38208;SDS011;24016;52.102;11.584;2023-02-01T03:28:43;15.55;;;3.47;;
38208;SDS011;24016;52.102;11.584;2023-02-01T03:31:13;14.45;;;3.85;;
38208;SDS011;24016;52.102;11.584;2023-02-01T03:33:39;14.20;;;3.15;;
38208;SDS011;24016;52.102;11.584;2023-02-01T03:41:10;14.68;;;3.60;;
38208;SDS011;24016;52.102;11.584;2023-02-01T03:43:56;16.63;;;4.10;;
38208;SDS011;24016;52.102;11.584;2023-02-01T03:46:30;13.55;;;3.28;;
38208;SDS011;24016;52.102;11.584;2023-02-01T03:49:19;23.25;;;3.88;;
38208;SDS011;24016;52.102;11.584;2023-02-01T03:51:49;12.75;;;3.25;;
38208;SDS011;24016;52.102;11.584;2023-02-01T03:54:18;15.65;;;3.58;;
38208;SDS011;24016;52.102;11.584;2023-02-01T03:56:45;17.20;;;3.67;;
38208;SDS011;24016;52.102;11.584;2023-02-01T03:59:12;13.80;;;3.42;;
38208;SDS011;24016;52.102;11.584;2023-02-01T04:01:39;13.07;;;3.08;;
38208;SDS011;24016;52.102;11.584;2023-02-01T04:04:05;16.75;;;4.03;;
38208;SDS011;24016;52.102;11.584;2023-02-01T04:06:31;16.48;;;4.07;;
38208;SDS011;24016;52.102;11.584;2023-02-01T04:08:57;17.05;;;3.17;;
38208;SDS011;24016;52.102;11.584;2023-02-01T04:11:22;16.10;;;3.38;;
38208;SDS011;24016;52.102;11.584;2023-02-01T04:13:48;17.40;;;3.45;;
38208;SDS011;24016;52.102;11.584;2023-02-01T04:16:13;13.15;;;3.20;;
38208;SDS011;24016;52.102;11.584;2023-02-01T04:18:39;14.18;;;3.83;;
38208;SDS011;24016;52.102;11.584;2023-02-01T04:21:04;15.38;;;4.18;;
38208;SDS011;24016;52.102;11.584;2023-02-01T04:23:30;23.92;;;3.90;;
38208;SDS011;24016;52.102;11.584;2023-02-01T04:26:03;16.90;;;3.38;;
38208;SDS011;24016;52.102;11.584;2023-02-01T04:28:29;14.68;;;3.42;;
38208;SDS011;24016;52.102;11.584;2023-02-01T04:30:55;17.85;;;3.20;;
38208;SDS011;24016;52.102;11.584;2023-02-01T04:33:21;13.35;;;3.85;;
38208;SDS011;24016;52.102;11.584;2023-02-01T04:35:47;17.63;;;4.10;;
38208;SDS011;24016;52.102;11.584;2023-02-01T04:38:12;17.80;;;3.80;;
38208;SDS011;24016;52.102;11.584;2023-02-01T04:40:38;12.77;;;3.53;;
38208;SDS011;24016;52.102;11.584;2023-02-01T04:43:03;19.05;;;3.97;;
38208;SDS011;24016;52.102;11.584;2023-02-01T04:45:29;16.85;;;4.10;;
38208;SDS011;24016;52.102;11.584;2023-02-01T04:47:55;19.65;;;3.33;;
38208;SDS011;24016;52.102;11.584;2023-02-01T04:50:21;15.48;;;3.47;;
38208;SDS011;24016;52.102;11.584;2023-02-01T04:52:46;12.88;;;3.83;;
38208;SDS011;24016;52.102;11.584;2023-02-01T04:55:12;15.93;;;4.10;;
38208;SDS011;24016;52.102;11.584;2023-02-01T04:57:38;23.30;;;3.90;;
38208;SDS011;24016;52.102;11.584;2023-02-01T05:00:05;12.55;;;3.85;;
38208;SDS011;24016;52.102;11.584;2023-02-01T05:02:32;16.58;;;3.90;;
38208;SDS011;24016;52.102;11.584;2023-02-01T05:04:57;13.15;;;4.65;;
38208;SDS011;24016;52.102;11.584;2023-02-01T05:07:23;19.85;;;5.13;;
38208;SDS011;24016;52.102;11.584;2023-02-01T05:09:48;14.10;;;3.75;;
38208;SDS011;24016;52.102;11.584;2023-02-01T05:12:14;14.15;;;3.85;;
38208;SDS011;24016;52.102;11.584;2023-02-01T05:14:58;14.40;;;4.18;;
38208;SDS011;24016;52.102;11.584;2023-02-01T05:17:23;15.30;;;3.67;;
38208;SDS011;24016;52.102;11.584;2023-02-01T05:19:49;14.45;;;3.38;;
38208;SDS011;24016;52.102;11.584;2023-02-01T05:22:14;14.15;;;3.97;;
38208;SDS011;24016;52.102;11.584;2023-02-01T05:24:40;17.42;;;4.30;;
38208;SDS011;24016;52.102;11.584;2023-02-01T05:27:05;15.65;;;3.58;;
38208;SDS011;24016;52.102;11.584;2023-02-01T05:29:31;18.13;;;3.95;;
38208;SDS011;24016;52.102;11.584;2023-02-01T05:31:56;21.33;;;4.03;;
38208;SDS011;24016;52.102;11.584;2023-02-01T05:34:22;20.05;;;4.55;;
38208;SDS011;24016;52.102;11.584;2023-02-01T05:36:47;17.73;;;5.05;;
38208;SDS011;24016;52.102;11.584;2023-02-01T05:39:13;16.33;;;4.05;;
38208;SDS011;24016;52.102;11.584;2023-02-01T05:41:39;15.02;;;3.85;;
38208;SDS011;24016;52.102;11.584;2023-02-01T05:44:04;14.65;;;3.60;;
38208;SDS011;24016;52.102;11.584;2023-02-01T05:46:32;16.13;;;3.60;;
38208;SDS011;24016;52.102;11.584;2023-02-01T05:48:58;13.40;;;3.97;;
38208;SDS011;24016;52.102;11.584;2023-02-01T05:51:24;20.23;;;4.68;;
38208;SDS011;24016;52.102;11.584;2023-02-01T05:53:50;16.40;;;4.07;;
38208;SDS011;24016;52.102;11.584;2023-02-01T05:56:15;13.50;;;3.60;;
38208;SDS011;24016;52.102;11.584;2023-02-01T05:58:41;18.80;;;4.28;;
38208;SDS011;24016;52.102;11.584;2023-02-01T06:01:06;16.88;;;3.90;;
38208;SDS011;24016;52.102;11.584;2023-02-01T06:03:32;13.45;;;3.70;;
38208;SDS011;24016;52.102;11.584;2023-02-01T06:05:57;13.90;;;3.58;;
38208;SDS011;24016;52.102;11.584;2023-02-01T06:08:23;13.88;;;3.55;;
38208;SDS011;24016;52.102;11.584;2023-02-01T06:10:56;15.35;;;3.78;;
38208;SDS011;24016;52.102;11.584;2023-02-01T06:13:31;13.93;;;3.97;;
38208;SDS011;24016;52.102;11.584;2023-02-01T06:15:57;17.63;;;4.10;;
38208;SDS011;24016;52.102;11.584;2023-02-01T06:18:23;15.23;;;3.78;;
38208;SDS011;24016;52.102;11.584;2023-02-01T06:20:53;24.48;;;4.38;;
38208;SDS011;24016;52.102;11.584;2023-02-01T06:23:25;16.00;;;4.47;;
38208;SDS011;24016;52.102;11.584;2023-02-01T06:25:52;16.65;;;4.30;;
38208;SDS011;24016;52.102;11.584;2023-02-01T06:28:18;16.20;;;4.38;;
38208;SDS011;24016;52.102;11.584;2023-02-01T06:30:43;14.10;;;4.53;;
38208;SDS011;24016;52.102;11.584;2023-02-01T06:33:11;14.80;;;4.03;;
38208;SDS011;24016;52.102;11.584;2023-02-01T06:35:39;12.57;;;4.30;;
38208;SDS011;24016;52.102;11.584;2023-02-01T06:38:07;15.18;;;4.93;;
38208;SDS011;24016;52.102;11.584;2023-02-01T06:40:32;13.50;;;4.18;;
38208;SDS011;24016;52.102;11.584;2023-02-01T06:42:58;16.20;;;5.10;;
38208;SDS011;24016;52.102;11.584;2023-02-01T06:45:24;13.80;;;4.78;;
38208;SDS011;24016;52.102;11.584;2023-02-01T06:47:49;15.55;;;5.07;;
38208;SDS011;24016;52.102;11.584;2023-02-01T06:50:15;16.77;;;4.88;;
38208;SDS011;24016;52.102;11.584;2023-02-01T06:52:41;17.98;;;4.78;;
38208;SDS011;24016;52.102;11.584;2023-02-01T06:55:07;15.60;;;4.20;;
38208;SDS011;24016;52.102;11.584;2023-02-01T06:57:32;17.58;;;4.78;;
38208;SDS011;24016;52.102;11.584;2023-02-01T06:59:59;18.73;;;5.25;;
38208;SDS011;24016;52.102;11.584;2023-02-01T07:02:24;16.80;;;4.05;;
38208;SDS011;24016;52.102;11.584;2023-02-01T07:04:50;14.15;;;3.78;;
38208;SDS011;24016;52.102;11.584;2023-02-01T07:07:17;15.38;;;4.07;;
38208;SDS011;24016;52.102;11.584;2023-02-01T07:09:46;10.95;;;4.15;;
38208;SDS011;24016;52.102;11.584;2023-02-01T07:12:11;13.18;;;3.60;;
38208;SDS011;24016;52.102;11.584;2023-02-01T07:14:37;14.80;;;3.63;;
38208;SDS011;24016;52.102;11.584;2023-02-01T07:17:02;13.07;;;4.05;;
38208;SDS011;24016;52.102;11.584;2023-02-01T07:19:28;13.27;;;4.05;;
38208;SDS011;24016;52.102;11.584;2023-02-01T07:21:54;9.40;;;3.33;;
38208;SDS011;24016;52.102;11.584;2023-02-01T07:24:19;16.17;;;4.50;;
38208;SDS011;24016;52.102;11.584;2023-02-01T07:26:45;12.70;;;3.38;;
38208;SDS011;24016;52.102;11.584;2023-02-01T07:29:12;11.05;;;3.38;;
38208;SDS011;24016;52.102;11.584;2023-02-01T07:31:38;14.82;;;3.10;;
38208;SDS011;24016;52.102;11.584;2023-02-01T07:34:03;12.10;;;3.70;;
38208;SDS011;24016;52.102;11.584;2023-02-01T07:36:29;18.85;;;4.70;;
38208;SDS011;24016;52.102;11.584;2023-02-01T07:38:55;12.75;;;3.60;;
38208;SDS011;24016;52.102;11.584;2023-02-01T07:41:21;12.13;;;3.35;;
38208;SDS011;24016;52.102;11.584;2023-02-01T07:43:47;14.20;;;3.50;;
38208;SDS011;24016;52.102;11.584;2023-02-01T07:46:13;11.50;;;3.60;;
38208;SDS011;24016;52.102;11.584;2023-02-01T07:48:40;17.33;;;4.32;;
38208;SDS011;24016;52.102;11.584;2023-02-01T07:51:07;18.58;;;4.38;;
38208;SDS011;24016;52.102;11.584;2023-02-01T07:53:35;13.50;;;4.65;;
38208;SDS011;24016;52.102;11.584;2023-02-01T07:56:00;16.75;;;4.72;;
38208;SDS011;24016;52.102;11.584;2023-02-01T07:58:27;19.23;;;4.68;;
38208;SDS011;24016;52.102;11.584;2023-02-01T08:00:53;14.25;;;3.97;;
38208;SDS011;24016;52.102;11.584;2023-02-01T08:03:37;15.13;;;3.97;;
38208;SDS011;24016;52.102;11.584;2023-02-01T08:06:03;12.10;;;4.20;;
38208;SDS011;24016;52.102;11.584;2023-02-01T08:08:29;18.00;;;3.90;;
38208;SDS011;24016;52.102;11.584;2023-02-01T08:10:58;10.98;;;3.92;;
38208;SDS011;24016;52.102;11.584;2023-02-01T08:13:25;11.00;;;4.10;;
38208;SDS011;24016;52.102;11.584;2023-02-01T08:15:50;11.15;;;4.05;;
38208;SDS011;24016;52.102;11.584;2023-02-01T08:18:16;8.70;;;3.50;;
38208;SDS011;24016;52.102;11.584;2023-02-01T08:20:43;12.40;;;4.30;;
38208;SDS011;24016;52.102;11.584;2023-02-01T08:23:10;9.32;;;3.42;;
38208;SDS011;24016;52.102;11.584;2023-02-01T08:25:36;10.82;;;4.20;;
38208;SDS011;24016;52.102;11.584;2023-02-01T08:28:02;9.63;;;3.45;;
38208;SDS011;24016;52.102;11.584;2023-02-01T08:30:28;8.73;;;3.88;;
38208;SDS011;24016;52.102;11.584;2023-02-01T08:32:53;10.70;;;4.28;;
38208;SDS011;24016;52.102;11.584;2023-02-01T08:35:19;9.40;;;3.88;;
38208;SDS011;24016;52.102;11.584;2023-02-01T08:37:44;9.05;;;4.20;;
38208;SDS011;24016;52.102;11.584;2023-02-01T08:40:12;14.77;;;4.32;;
38208;SDS011;24016;52.102;11.584;2023-02-01T08:42:39;11.90;;;4.22;;
38208;SDS011;24016;52.102;11.584;2023-02-01T08:45:21;10.07;;;4.05;;
38208;SDS011;24016;52.102;11.584;2023-02-01T08:47:51;14.57;;;4.93;;
38208;SDS011;24016;52.102;11.584;2023-02-01T08:50:18;11.45;;;4.00;;
38208;SDS011;24016;52.102;11.584;2023-02-01T08:52:44;14.35;;;4.20;;
38208;SDS011;24016;52.102;11.584;2023-02-01T08:55:11;10.10;;;3.70;;
38208;SDS011;24016;52.102;11.584;2023-02-01T08:57:37;10.50;;;3.17;;
38208;SDS011;24016;52.102;11.584;2023-02-01T09:00:05;11.38;;;3.78;;
38208;SDS011;24016;52.102;11.584;2023-02-01T09:02:32;16.27;;;3.53;;
38208;SDS011;24016;52.102;11.584;2023-02-01T09:04:57;9.00;;;3.05;;
38208;SDS011;24016;52.102;11.584;2023-02-01T09:07:23;12.20;;;3.83;;
38208;SDS011;24016;52.102;11.584;2023-02-01T09:09:49;13.57;;;3.83;;
38208;SDS011;24016;52.102;11.584;2023-02-01T09:12:14;14.00;;;4.15;;
38208;SDS011;24016;52.102;11.584;2023-02-01T09:14:40;12.65;;;3.67;;
38208;SDS011;24016;52.102;11.584;2023-02-01T09:17:06;12.95;;;3.85;;
38208;SDS011;24016;52.102;11.584;2023-02-01T09:19:31;9.73;;;3.45;;
38208;SDS011;24016;52.102;11.584;2023-02-01T09:21:57;12.57;;;3.63;;
38208;SDS011;24016;52.102;11.584;2023-02-01T09:24:23;14.02;;;3.45;;
38208;SDS011;24016;52.102;11.584;2023-02-01T09:26:48;13.80;;;3.28;;
38208;SDS011;24016;52.102;11.584;2023-02-01T09:29:14;8.82;;;2.92;;
38208;SDS011;24016;52.102;11.584;2023-02-01T09:31:40;7.68;;;2.13;;
38208;SDS011;24016;52.102;11.584;2023-02-01T09:34:06;5.45;;;2.15;;
38208;SDS011;24016;52.102;11.584;2023-02-01T09:36:32;10.68;;;2.13;;
38208;SDS011;24016;52.102;11.584;2023-02-01T09:39:00;9.75;;;2.90;;
38208;SDS011;24016;52.102;11.584;2023-02-01T09:41:32;9.00;;;2.75;;
38208;SDS011;24016;52.102;11.584;2023-02-01T09:46:33;9.50;;;3.00;;
38208;SDS011;24016;52.102;11.584;2023-02-01T09:49:01;8.55;;;2.50;;
38208;SDS011;24016;52.102;11.584;2023-02-01T09:51:31;11.70;;;2.75;;
38208;SDS011;24016;52.102;11.584;2023-02-01T09:54:33;8.85;;;2.05;;
38208;SDS011;24016;52.102;11.584;2023-02-01T09:57:06;11.32;;;3.70;;
38208;SDS011;24016;52.102;11.584;2023-02-01T09:59:39;9.63;;;2.97;;
38208;SDS011;24016;52.102;11.584;2023-02-01T10:02:12;8.93;;;2.80;;
38208;SDS011;24016;52.102;11.584;2023-02-01T10:04:44;13.35;;;3.70;;
38208;SDS011;24016;52.102;11.584;2023-02-01T10:07:13;11.00;;;3.25;;
38208;SDS011;24016;52.102;11.584;2023-02-01T10:09:52;5.93;;;3.03;;
38208;SDS011;24016;52.102;11.584;2023-02-01T10:26:26;12.40;;;3.65;;
38208;SDS011;24016;52.102;11.584;2023-02-01T10:28:58;15.63;;;3.28;;
38208;SDS011;24016;52.102;11.584;2023-02-01T10:31:28;12.27;;;3.25;;
38208;SDS011;24016;52.102;11.584;2023-02-01T10:33:57;10.18;;;2.75;;
38208;SDS011;24016;52.102;11.584;2023-02-01T10:36:32;13.30;;;3.33;;
38208;SDS011;24016;52.102;11.584;2023-02-01T10:39:01;13.15;;;3.60;;
38208;SDS011;24016;52.102;11.584;2023-02-01T10:41:36;15.82;;;3.63;;
38208;SDS011;24016;52.102;11.584;2023-02-01T10:44:04;14.57;;;4.60;;
38208;SDS011;24016;52.102;11.584;2023-02-01T10:46:35;15.43;;;4.57;;
38208;SDS011;24016;52.102;11.584;2023-02-01T10:49:01;15.68;;;4.50;;
38208;SDS011;24016;52.102;11.584;2023-02-01T10:51:30;19.83;;;5.03;;
38208;SDS011;24016;52.102;11.584;2023-02-01T10:54:22;14.52;;;4.57;;
38208;SDS011;24016;52.102;11.584;2023-02-01T10:56:57;14.40;;;3.92;;
38208;SDS011;24016;52.102;11.584;2023-02-01T10:59:27;11.15;;;4.30;;
38208;SDS011;24016;52.102;11.584;2023-02-01T11:01:58;12.60;;;3.22;;
38208;SDS011;24016;52.102;11.584;2023-02-01T11:04:26;16.27;;;3.28;;
38208;SDS011;24016;52.102;11.584;2023-02-01T11:07:17;16.25;;;3.45;;
38208;SDS011;24016;52.102;11.584;2023-02-01T11:09:50;15.45;;;3.10;;
38208;SDS011;24016;52.102;11.584;2023-02-01T11:12:34;9.52;;;2.45;;
38208;SDS011;24016;52.102;11.584;2023-02-01T11:15:19;9.07;;;2.83;;
38208;SDS011;24016;52.102;11.584;2023-02-01T11:17:48;7.65;;;2.30;;
38208;SDS011;24016;52.102;11.584;2023-02-01T11:20:39;13.88;;;3.10;;
38208;SDS011;24016;52.102;11.584;2023-02-01T11:23:13;12.55;;;3.00;;
38208;SDS011;24016;52.102;11.584;2023-02-01T11:25:46;13.80;;;2.63;;
38208;SDS011;24016;52.102;11.584;2023-02-01T11:28:17;10.65;;;3.00;;
38208;SDS011;24016;52.102;11.584;2023-02-01T11:30:45;9.35;;;2.53;;
38208;SDS011;24016;52.102;11.584;2023-02-01T11:33:13;12.50;;;2.97;;
38208;SDS011;24016;52.102;11.584;2023-02-01T11:35:42;14.45;;;3.08;;
38208;SDS011;24016;52.102;11.584;2023-02-01T11:41:22;10.95;;;2.70;;
38208;SDS011;24016;52.102;11.584;2023-02-01T11:43:50;10.93;;;2.70;;
38208;SDS011;24016;52.102;11.584;2023-02-01T11:48:49;11.40;;;3.13;;
38208;SDS011;24016;52.102;11.584;2023-02-01T11:51:21;9.27;;;2.58;;
38208;SDS011;24016;52.102;11.584;2023-02-01T11:56:51;10.30;;;3.00;;
38208;SDS011;24016;52.102;11.584;2023-02-01T11:59:41;13.13;;;3.10;;
38208;SDS011;24016;52.102;11.584;2023-02-01T12:05:28;9.30;;;2.75;;
38208;SDS011;24016;52.102;11.584;2023-02-01T12:13:53;14.20;;;2.38;;
38208;SDS011;24016;52.102;11.584;2023-02-01T12:19:43;16.50;;;3.03;;
38208;SDS011;24016;52.102;11.584;2023-02-01T12:33:59;11.63;;;2.58;;
38208;SDS011;24016;52.102;11.584;2023-02-01T12:36:39;9.27;;;2.63;;
38208;SDS011;24016;52.102;11.584;2023-02-01T12:39:31;9.80;;;2.25;;
38208;SDS011;24016;52.102;11.584;2023-02-01T12:44:58;14.52;;;2.60;;
38208;SDS011;24016;52.102;11.584;2023-02-01T12:50:56;8.45;;;2.20;;
38208;SDS011;24016;52.102;11.584;2023-02-01T12:56:13;12.63;;;2.28;;
38208;SDS011;24016;52.102;11.584;2023-02-01T12:58:45;11.52;;;3.00;;
38208;SDS011;24016;52.102;11.584;2023-02-01T13:01:42;8.50;;;2.85;;
38208;SDS011;24016;52.102;11.584;2023-02-01T13:04:44;6.85;;;2.17;;
38208;SDS011;24016;52.102;11.584;2023-02-01T13:07:30;10.50;;;2.45;;
38208;SDS011;24016;52.102;11.584;2023-02-01T13:12:59;8.32;;;2.45;;
38208;SDS011;24016;52.102;11.584;2023-02-01T13:15:40;10.38;;;2.60;;
38208;SDS011;24016;52.102;11.584;2023-02-01T13:18:41;12.65;;;3.28;;
38208;SDS011;24016;52.102;11.584;2023-02-01T13:21:12;9.50;;;2.45;;
38208;SDS011;24016;52.102;11.584;2023-02-01T13:23:46;10.07;;;2.20;;
38208;SDS011;24016;52.102;11.584;2023-02-01T13:26:13;9.27;;;2.67;;
38208;SDS011;24016;52.102;11.584;2023-02-01T13:31:20;9.77;;;2.85;;
38208;SDS011;24016;52.102;11.584;2023-02-01T13:36:56;11.25;;;2.80;;
38208;SDS011;24016;52.102;11.584;2023-02-01T13:44:58;11.18;;;2.97;;
38208;SDS011;24016;52.102;11.584;2023-02-01T13:47:28;10.65;;;3.25;;
38208;SDS011;24016;52.102;11.584;2023-02-01T13:50:00;8.68;;;2.88;;
38208;SDS011;24016;52.102;11.584;2023-02-01T13:52:40;8.98;;;2.85;;
38208;SDS011;24016;52.102;11.584;2023-02-01T13:57:46;7.43;;;2.78;;
38208;SDS011;24016;52.102;11.584;2023-02-01T14:03:01;9.13;;;2.50;;
38208;SDS011;24016;52.102;11.584;2023-02-01T14:08:03;10.65;;;3.25;;
38208;SDS011;24016;52.102;11.584;2023-02-01T14:10:55;9.30;;;3.22;;
38208;SDS011;24016;52.102;11.584;2023-02-01T14:21:46;9.88;;;3.40;;
38208;SDS011;24016;52.102;11.584;2023-02-01T14:24:02;11.13;;;4.10;;
38208;SDS011;24016;52.102;11.584;2023-02-01T14:29:08;10.48;;;4.00;;
38208;SDS011;24016;52.102;11.584;2023-02-01T14:31:42;8.77;;;3.50;;
38208;SDS011;24016;52.102;11.584;2023-02-01T14:34:20;8.23;;;3.35;;
38208;SDS011;24016;52.102;11.584;2023-02-01T14:42:37;7.72;;;3.13;;
38208;SDS011;24016;52.102;11.584;2023-02-01T14:50:40;4.22;;;2.83;;
38208;SDS011;24016;52.102;11.584;2023-02-01T14:55:41;4.47;;;2.45;;
38208;SDS011;24016;52.102;11.584;2023-02-01T15:01:00;5.45;;;2.80;;
38208;SDS011;24016;52.102;11.584;2023-02-01T15:14:39;3.72;;;1.65;;
38208;SDS011;24016;52.102;11.584;2023-02-01T15:19:53;3.63;;;1.92;;
38208;SDS011;24016;52.102;11.584;2023-02-01T15:22:19;3.05;;;1.67;;
38208;SDS011;24016;52.102;11.584;2023-02-01T15:24:51;4.43;;;1.65;;
38208;SDS011;24016;52.102;11.584;2023-02-01T15:27:21;2.75;;;1.35;;
38208;SDS011;24016;52.102;11.584;2023-02-01T15:29:47;2.30;;;1.38;;
38208;SDS011;24016;52.102;11.584;2023-02-01T15:32:27;1.63;;;1.10;;
38208;SDS011;24016;52.102;11.584;2023-02-01T15:40:54;4.95;;;1.10;;
38208;SDS011;24016;52.102;11.584;2023-02-01T15:43:26;3.90;;;1.15;;
38208;SDS011;24016;52.102;11.584;2023-02-01T15:45:57;2.80;;;1.33;;
38208;SDS011;24016;52.102;11.584;2023-02-01T15:48:27;1.00;;;0.85;;
38208;SDS011;24016;52.102;11.584;2023-02-01T15:50:57;3.90;;;1.38;;
38208;SDS011;24016;52.102;11.584;2023-02-01T15:53:23;4.15;;;1.23;;
38208;SDS011;24016;52.102;11.584;2023-02-01T15:58:22;2.25;;;1.40;;
38208;SDS011;24016;52.102;11.584;2023-02-01T16:00:59;3.03;;;1.27;;
38208;SDS011;24016;52.102;11.584;2023-02-01T16:08:48;5.10;;;1.40;;
38208;SDS011;24016;52.102;11.584;2023-02-01T16:11:40;3.30;;;1.30;;
38208;SDS011;24016;52.102;11.584;2023-02-01T16:14:18;4.10;;;1.25;;
38208;SDS011;24016;52.102;11.584;2023-02-01T16:16:43;4.15;;;1.23;;
38208;SDS011;24016;52.102;11.584;2023-02-01T16:19:09;5.22;;;1.63;;
38208;SDS011;24016;52.102;11.584;2023-02-01T16:21:35;5.05;;;1.30;;
38208;SDS011;24016;52.102;11.584;2023-02-01T16:24:00;6.20;;;1.77;;
38208;SDS011;24016;52.102;11.584;2023-02-01T16:26:28;6.45;;;1.75;;
38208;SDS011;24016;52.102;11.584;2023-02-01T16:28:56;6.95;;;1.50;;
38208;SDS011;24016;52.102;11.584;2023-02-01T16:31:23;7.03;;;1.85;;
38208;SDS011;24016;52.102;11.584;2023-02-01T16:33:54;4.95;;;1.88;;
38208;SDS011;24016;52.102;11.584;2023-02-01T16:36:19;5.40;;;1.80;;
38208;SDS011;24016;52.102;11.584;2023-02-01T16:38:46;5.00;;;1.60;;
38208;SDS011;24016;52.102;11.584;2023-02-01T16:41:14;4.55;;;1.80;;
38208;SDS011;24016;52.102;11.584;2023-02-01T16:43:41;7.65;;;1.95;;
38208;SDS011;24016;52.102;11.584;2023-02-01T16:46:12;7.80;;;2.17;;
38208;SDS011;24016;52.102;11.584;2023-02-01T16:48:40;8.13;;;2.00;;
38208;SDS011;24016;52.102;11.584;2023-02-01T16:51:12;6.13;;;1.70;;
38208;SDS011;24016;52.102;11.584;2023-02-01T16:53:39;5.90;;;1.85;;
38208;SDS011;24016;52.102;11.584;2023-02-01T16:56:21;9.27;;;2.30;;
38208;SDS011;24016;52.102;11.584;2023-02-01T16:58:49;9.20;;;2.10;;
38208;SDS011;24016;52.102;11.584;2023-02-01T17:01:16;7.60;;;1.75;;
38208;SDS011;24016;52.102;11.584;2023-02-01T17:03:43;9.40;;;2.22;;
38208;SDS011;24016;52.102;11.584;2023-02-01T17:06:11;6.03;;;1.67;;
38208;SDS011;24016;52.102;11.584;2023-02-01T17:08:41;6.53;;;1.48;;
38208;SDS011;24016;52.102;11.584;2023-02-01T17:11:09;7.05;;;2.20;;
38208;SDS011;24016;52.102;11.584;2023-02-01T17:13:37;6.18;;;1.60;;
38208;SDS011;24016;52.102;11.584;2023-02-01T17:16:03;7.95;;;1.90;;
38208;SDS011;24016;52.102;11.584;2023-02-01T17:18:33;6.32;;;1.67;;
38208;SDS011;24016;52.102;11.584;2023-02-01T17:21:00;6.90;;;1.65;;
38208;SDS011;24016;52.102;11.584;2023-02-01T17:23:27;6.38;;;1.80;;
38208;SDS011;24016;52.102;11.584;2023-02-01T17:25:54;4.80;;;1.38;;
38208;SDS011;24016;52.102;11.584;2023-02-01T17:28:21;10.00;;;2.03;;